Hymera, IN

6:39 PM EST on December 27, 2014 (GMT -0500)
RILEY | Change Station
CLOSE
Current Station
Personal Weather Station
Location: TERRE HAUTE,, IN
Elevation: 567 ft
Nearby Weather Stations

Elev 567 ft 39.40 °N, 87.30 °W | Updated 1 second ago

Overcast
Overcast
41.2 °F
Feels Like 39 °F
N
3.5
Wind Variable Wind from North
Gusts 3.5 mph

Today
High -- | Low -- °F
--% Chance of Precip.
Yesterday
High -- | Low -- °F
Precip. -- in
8:07 AM 5:33 PM
Waxing Crescent, 41% visible
Pressure 30.11 in
Visibility 10.0 miles
Clouds Scattered Clouds 700 ft
Mostly Cloudy 1200 ft
Overcast 5500 ft
Windchill 39 °F
Dew Point 41 °F
Humidity 100%
Rainfall 0.05 in
Snow Depth Not available.
UV 0 out of 12
Pollen .10 out of 12
Air Quality Not available.
Flu Activity Not available.
SPECI KHUF 272334Z 32010G17KT 10SM SCT007 BKN012 OVC055 05/03 A3011 RMK AO2 RAB2256E24 P0000 T00500028

More Conditions Fewer Conditions

Pressure 30.11 in
Visibility 10.0 miles
Clouds Scattered Clouds 700 ft
Mostly Cloudy 1200 ft
Overcast 5500 ft
Windchill 39 °F
Dew Point 41 °F
Humidity 100%
Rainfall 0.05 in
Snow Depth Not available.
UV 0 out of 12
Pollen .10 out of 12
Air Quality Not available.
Flu Activity Not available.
SPECI KHUF 272334Z 32010G17KT 10SM SCT007 BKN012 OVC055 05/03 A3011 RMK AO2 RAB2256E24 P0000 T00500028

More Conditions Fewer Conditions

10-Day Weather Forecast

Almanac

Astronomy

Dec. 27, 2014 Rise Set
Actual Time
Civil Twilight
Nautical Twilight
Astronomical Twilight
Moon
Length of Visible Light
Length of Day
Tomorrow will be .
, % of the Moon is Illuminated

Today's Extremes

State Highs State Lows

Community

WunderPhotos

Upload Photos

1,781,109 photos uploaded!

WunderBlogs® & News

Nearby

Air Quality

  Air Quality AQ Index Pollutant
Not available.

Snow Depth

Station Depth Elevation

Earthquake Activity

City Distance Mag. Time & Date
Minimum magnitude displayed is 2.5.

Coastal Water Temperatures

Place Temperature

Nearby Weather Stations